Time;durP1;ratioP1;P1;durP2;ratioP2;P2;SDS_P1;SDS_P2;PMS_P1;PMS_P2;Temp;Humidity;BMP_temperature;BMP_pressure;BME280_temperature;BME280_humidity;BME280_pressure;Samples;Min_cycle;Max_cycle;Signal;HPM_P1;HPM_P2
2023/06/16 00:00:42;;;;;;;;;;;;;;;;;;;;;
2023/06/16 00:03:49;;;;;;;;;8.67;7.00;;;;;22.30;67.19;100187.47;146624;582;46021;-66
2023/06/16 00:07:06;;;;;;;;;7.33;7.33;;;;;22.25;66.98;100190.16;146618;611;46916;-66
2023/06/16 00:10:08;;;;;;;;;6.33;5.00;;;;;22.20;66.67;100193.69;146623;601;46020;-65
2023/06/16 00:13:09;;;;;;;;;8.00;7.00;;;;;22.12;67.01;100181.38;146620;707;46017;-63
2023/06/16 00:16:20;;;;;;;;;8.00;7.00;;;;;21.14;66.54;100040.97;146617;621;47010;-63
2023/06/16 00:19:21;;;;;;;;;8.00;6.50;;;;;21.88;66.68;100184.09;146621;570;46012;-63
2023/06/16 00:22:27;;;;;;;;;9.67;8.00;;;;;21.80;67.18;100181.47;146617;605;46020;-63
2023/06/16 00:25:36;;;;;;;;;6.00;6.00;;;;;18.78;66.71;99670.97;146618;601;46918;-63
2023/06/16 00:28:35;;;;;;;;;8.75;8.00;;;;;21.72;67.54;100178.00;146622;610;46020;-63
2023/06/16 00:31:42;;;;;;;;;;;;;;;;;;;;;
2023/06/16 00:34:35;;;;;;;;;6.33;6.00;;;;;21.69;67.51;100178.00;146624;569;46020;-65
2023/06/16 00:37:40;;;;;;;;;7.00;7.00;;;;;21.66;67.54;100181.53;146618;564;46016;-63
2023/06/16 00:40:39;;;;;;;;;7.00;4.50;;;;;21.64;67.59;100180.66;146622;570;46010;-64
2023/06/16 00:43:36;;;;;;;;;6.00;6.00;;;;;21.59;68.07;100179.81;146621;571;45026;-64
2023/06/16 00:46:42;;;;;;;;;8.00;8.00;;;;;21.58;67.45;100174.50;146619;565;47010;-64
2023/06/16 00:49:47;;;;;;;;;8.33;8.00;;;;;21.53;68.12;100179.81;146621;632;46016;-64
2023/06/16 00:52:44;;;;;;;;;7.00;6.67;;;;;21.51;68.27;100176.28;146617;577;46048;-64
2023/06/16 00:55:46;;;;;;;;;9.00;8.00;;;;;21.52;68.18;100174.53;146622;636;46012;-63
2023/06/16 00:58:44;;;;;;;;;8.00;7.00;;;;;21.52;68.10;100164.84;146625;591;45020;-63
2023/06/16 01:01:42;;;;;;;;;8.00;7.00;;;;;21.52;68.29;100156.94;146620;624;46012;-63
2023/06/16 01:04:43;;;;;;;;;6.00;6.00;;;;;21.50;68.48;100155.22;146621;595;46012;-62
2023/06/16 01:07:59;;;;;;;;;9.00;7.33;;;;;21.46;68.21;100154.31;146623;654;46016;-63
2023/06/16 01:11:35;;;;;;;;;8.00;6.50;;;;;18.94;68.07;99727.03;146621;676;46020;-63
2023/06/16 01:15:21;;;;;;;;;;;;;;;;;;;;;
2023/06/16 01:18:32;;;;;;;;;8.00;8.00;;;;;21.35;69.49;100156.06;146625;572;46021;-63
2023/06/16 01:22:16;;;;;;;;;9.00;7.33;;;;;21.26;68.57;100162.22;146617;658;46016;-63
2023/06/16 01:25:24;;;;;;;;;7.67;7.67;;;;;21.25;69.46;100164.88;146619;661;45020;-63
2023/06/16 01:29:00;;;;;;;;;7.25;7.00;;;;;21.27;68.84;100163.09;146619;589;46016;-63
2023/06/16 01:32:16;;;;;;;;;8.00;8.00;;;;;21.28;68.98;100168.41;146623;619;47010;-63
2023/06/16 01:35:18;;;;;;;;;7.33;7.33;;;;;21.28;70.32;100164.84;146618;619;46918;-63
2023/06/16 01:38:31;;;;;;;;;8.25;8.25;;;;;18.97;68.67;99766.47;146626;579;46020;-63
2023/06/16 01:41:41;;;;;;;;;8.00;8.00;;;;;21.33;69.62;100158.69;146619;678;46017;-63
2023/06/16 01:44:44;;;;;;;;;10.75;9.75;;;;;21.38;69.44;100164.00;146620;563;46010;-63
2023/06/16 01:47:56;;;;;;;;;8.25;8.25;;;;;21.42;68.87;100168.41;146620;572;46015;-63
2023/06/16 01:50:55;;;;;;;;;9.50;9.50;;;;;21.41;70.13;100164.88;146621;587;46010;-63
2023/06/16 01:54:03;;;;;;;;;9.75;8.50;;;;;21.34;70.91;100159.56;146618;573;46014;-63
2023/06/16 01:57:17;;;;;;;;;11.00;9.25;;;;;17.85;69.41;99564.03;146617;572;46010;-63
2023/06/16 02:00:20;;;;;;;;;10.75;8.75;;;;;21.40;70.65;100163.13;146615;604;47012;-63
2023/06/16 02:03:51;;;;;;;;;10.67;9.00;;;;;18.88;69.54;99716.53;146622;615;46012;-63
2023/06/16 02:07:21;;;;;;;;;11.00;11.00;;;;;19.01;70.02;99735.81;146613;689;47481;-63
2023/06/16 02:10:46;;;;;;;;;9.50;9.00;;;;;18.75;69.75;99699.84;146623;642;46027;-64
2023/06/16 02:13:51;;;;;;;;;8.75;8.25;;;;;21.39;71.03;100163.13;146620;696;46914;-65
2023/06/16 02:17:04;;;;;;;;;10.00;9.00;;;;;21.36;72.09;100152.56;146621;603;47010;-65
2023/06/16 02:20:33;;;;;;;;;9.25;8.75;;;;;18.79;70.32;99704.25;146621;646;46916;-65
2023/06/16 02:23:47;;;;;;;;;9.00;9.00;;;;;21.29;71.44;100135.00;146622;574;46020;-65
2023/06/16 02:26:51;;;;;;;;;6.33;6.00;;;;;21.32;70.74;100137.62;146621;607;46917;-65
2023/06/16 02:30:06;;;;;;;;;9.33;7.33;;;;;21.38;70.35;100150.81;146623;621;46020;-64
2023/06/16 02:33:04;;;;;;;;;8.00;8.00;;;;;21.40;70.86;100154.31;146620;565;46013;-63
2023/06/16 02:36:03;;;;;;;;;9.00;8.00;;;;;21.37;70.89;100143.78;146622;668;46020;-64
2023/06/16 02:39:03;;;;;;;;;9.00;8.67;;;;;21.36;71.44;100147.31;146619;612;46016;-64
2023/06/16 02:41:55;;;;;;;;;6.67;5.67;;;;;21.32;70.93;100146.41;146623;579;46010;-64
2023/06/16 02:44:56;;;;;;;;;9.67;7.33;;;;;21.33;71.01;100155.19;146618;591;47014;-63
2023/06/16 02:48:14;;;;;;;;;9.33;6.67;;;;;21.31;70.96;100144.66;146620;583;46021;-65
2023/06/16 02:51:12;;;;;;;;;7.67;7.67;;;;;21.27;71.09;100142.00;146614;612;47018;-65
2023/06/16 02:54:19;;;;;;;;;9.67;9.00;;;;;21.24;70.99;100145.53;146624;628;46021;-65
2023/06/16 02:57:52;;;;;;;;;9.75;8.75;;;;;18.67;69.83;99706.81;146621;575;46012;-65
2023/06/16 03:00:52;;;;;;;;;9.67;7.67;;;;;21.20;70.66;100135.87;146620;598;47020;-65
2023/06/16 03:04:08;;;;;;;;;6.67;6.67;;;;;18.60;69.54;99695.44;146618;583;47013;-65
2023/06/16 03:07:36;;;;;;;;;14.00;12.75;;;;;21.17;70.87;100135.87;146621;569;46020;-64
2023/06/16 03:10:32;;;;;;;;;15.00;12.00;;;;;21.18;71.72;100141.16;146618;665;46016;-64
2023/06/16 03:13:41;;;;;;;;;16.50;13.00;;;;;21.17;72.36;100138.50;146620;629;46012;-64
2023/06/16 03:16:50;;;;;;;;;10.50;10.50;;;;;21.13;72.17;100139.41;146616;706;46016;-64
2023/06/16 03:19:53;;;;;;;;;13.25;12.50;;;;;21.12;73.30;100142.91;146622;564;46010;-64
2023/06/16 03:22:52;;;;;;;;;10.75;10.00;;;;;21.14;72.31;100141.16;146619;697;46016;-64
2023/06/16 03:25:48;;;;;;;;;10.67;10.67;;;;;21.18;72.37;100130.62;146622;645;46021;-64
2023/06/16 03:28:41;;;;;;;;;10.33;10.00;;;;;21.25;72.15;100122.69;146618;669;46915;-64
2023/06/16 03:31:42;;;;;;;;;1.00;0.50;;;;;21.25;72.77;100128.84;146619;659;46011;-65
2023/06/16 03:34:40;;;;;;;;;10.00;8.67;;;;;21.20;72.74;100120.94;146618;622;46016;-64
2023/06/16 03:37:51;;;;;;;;;9.25;8.00;;;;;21.18;73.02;100121.81;146621;577;46020;-64
2023/06/16 03:40:52;;;;;;;;;8.25;7.25;;;;;21.14;72.42;100120.94;146618;622;46014;-64
2023/06/16 03:44:05;;;;;;;;;9.00;9.00;;;;;21.20;73.00;100120.94;146625;587;46020;-65
2023/06/16 03:46:59;;;;;;;;;7.67;7.33;;;;;21.20;72.76;100120.06;146621;577;46013;-65
2023/06/16 03:50:25;;;;;;;;;10.67;8.00;;;;;18.74;71.80;99702.50;146622;569;46010;-65
2023/06/16 03:53:46;;;;;;;;;6.50;6.00;;;;;18.80;72.84;99694.63;146614;644;47013;-65
2023/06/16 03:56:45;;;;;;;;;9.00;9.00;;;;;21.36;75.38;100124.44;146622;584;47013;-64
2023/06/16 03:59:48;;;;;;;;;11.00;11.00;;;;;21.30;78.47;100121.78;146618;569;46016;-64
2023/06/16 04:03:09;;;;;;;;;9.00;8.00;;;;;21.22;77.12;100118.31;146616;616;46020;-64
2023/06/16 04:06:35;;;;;;;;;10.33;9.00;;;;;18.63;76.43;99681.44;146618;575;46016;-64
2023/06/16 04:09:34;;;;;;;;;9.67;9.00;;;;;21.16;77.62;100103.38;146622;652;46042;-64
2023/06/16 04:12:37;;;;;;;;;11.67;10.33;;;;;21.17;78.41;100097.19;146618;601;46916;-64
2023/06/16 04:15:36;;;;;;;;;11.00;10.00;;;;;21.20;78.04;100089.28;146619;578;46020;-64
2023/06/16 04:18:56;;;;;;;;;10.00;9.00;;;;;21.30;78.75;100084.00;146623;620;46012;-64
2023/06/16 04:22:05;;;;;;;;;12.00;8.67;;;;;21.40;77.38;100091.03;146622;601;46010;-64
2023/06/16 04:25:09;;;;;;;;;10.67;10.33;;;;;21.50;78.35;100103.31;146623;569;46012;-63
2023/06/16 04:28:03;;;;;;;;;9.67;9.67;;;;;21.61;78.95;100100.63;146623;579;46020;-64
2023/06/16 04:31:12;;;;;;;;;11.00;10.00;;;;;21.73;77.93;100105.00;146620;592;46017;-66
2023/06/16 04:34:19;;;;;;;;;8.75;8.75;;;;;21.83;77.42;100106.69;146617;652;46020;-65
2023/06/16 04:37:18;;;;;;;;;10.00;9.00;;;;;21.96;78.06;100105.75;146624;565;45016;-66
2023/06/16 04:40:18;;;;;;;;;10.00;8.00;;;;;22.09;76.77;100114.50;146618;563;46916;-65
2023/06/16 04:43:17;;;;;;;;;8.50;8.50;;;;;22.17;77.67;100110.06;146623;683;46012;-66
2023/06/16 04:46:24;;;;;;;;;11.33;10.00;;;;;22.24;77.59;100103.88;146625;671;45021;-66
2023/06/16 04:49:20;;;;;;;;;9.33;9.00;;;;;22.33;77.44;100110.84;146619;611;46016;-65
2023/06/16 04:52:13;;;;;;;;;11.00;9.33;;;;;22.41;77.30;100102.91;146621;586;46010;-66
2023/06/16 04:55:31;;;;;;;;;9.00;8.67;;;;;21.02;75.08;99841.56;146622;637;46012;-66
2023/06/16 04:58:28;;;;;;;;;9.33;9.33;;;;;22.64;76.01;100106.22;146624;581;46020;-65
2023/06/16 05:01:40;;;;;;;;;10.67;8.67;;;;;22.71;74.36;100102.66;146619;606;46017;-65
2023/06/16 05:04:49;;;;;;;;;6.67;6.67;;;;;22.80;73.87;100110.50;146618;633;46020;-63
2023/06/16 05:07:50;;;;;;;;;11.67;11.00;;;;;22.87;73.38;100095.47;146619;584;45017;-65
2023/06/16 05:11:11;;;;;;;;;9.67;8.67;;;;;22.94;72.44;100102.47;146624;579;46020;-66
2023/06/16 05:14:35;;;;;;;;;10.00;10.00;;;;;20.55;71.19;99686.41;146618;571;46017;-65
2023/06/16 05:17:27;;;;;;;;;9.00;9.00;;;;;23.14;72.17;100109.34;146621;662;47020;-65
2023/06/16 05:20:31;;;;;;;;;9.00;9.00;;;;;23.28;71.82;100118.03;146621;571;46014;-65
2023/06/16 05:23:32;;;;;;;;;10.67;8.33;;;;;23.46;71.62;100131.06;146624;593;46021;-66
2023/06/16 05:26:35;;;;;;;;;9.67;8.00;;;;;23.66;71.45;100129.94;146620;565;46016;-64
2023/06/16 05:29:33;;;;;;;;;13.00;11.67;;;;;23.87;69.31;100129.72;146622;581;46021;-64
2023/06/16 05:32:29;;;;;;;;;10.33;9.33;;;;;24.05;69.40;100125.06;146619;612;46016;-65
2023/06/16 05:35:37;;;;;;;;;13.25;12.25;;;;;24.27;69.18;100129.19;146616;653;46022;-65
2023/06/16 05:38:29;;;;;;;;;11.25;9.75;;;;;24.53;68.49;100135.91;146617;643;46013;-66
2023/06/16 05:41:28;;;;;;;;;12.33;10.00;;;;;24.73;66.86;100136.44;146622;680;46020;-65
2023/06/16 05:44:52;;;;;;;;;8.00;8.00;;;;;23.82;65.91;99950.66;146620;564;46017;-69
2023/06/16 05:48:03;;;;;;;;;9.00;7.00;;;;;24.89;64.71;100132.66;146624;594;46012;-68
2023/06/16 05:50:58;;;;;;;;;15.33;12.00;;;;;24.88;65.10;100138.84;146619;667;46015;-68
2023/06/16 05:53:53;;;;;;;;;13.75;12.00;;;;;24.83;65.46;100135.41;146621;676;46012;-68
2023/06/16 05:56:52;;;;;;;;;10.67;10.67;;;;;24.78;65.50;100134.63;146618;592;47012;-67
2023/06/16 06:00:11;;;;;;;;;12.33;11.00;;;;;22.07;65.06;99672.75;146622;635;46011;-67
2023/06/16 06:03:14;;;;;;;;;12.00;11.75;;;;;24.79;65.57;100139.00;146617;577;46016;-68
2023/06/16 06:06:20;;;;;;;;;12.25;10.75;;;;;22.74;65.03;99779.31;146616;708;46020;-67
2023/06/16 06:09:32;;;;;;;;;9.67;9.00;;;;;24.91;64.37;100129.97;146620;602;46016;-69
2023/06/16 06:12:36;;;;;;;;;9.33;9.33;;;;;25.08;64.57;100133.22;146622;653;46020;-65
2023/06/16 06:15:46;;;;;;;;;;;;;;;;;;;;;
2023/06/16 06:18:49;;;;;;;;;11.00;11.00;;;;;25.56;62.54;100138.53;146621;569;46020;-66
2023/06/16 06:21:49;;;;;;;;;8.00;8.00;;;;;25.72;61.88;100136.44;146618;564;46017;-65
2023/06/16 06:24:47;;;;;;;;;9.50;8.50;;;;;25.90;60.94;100142.34;146620;591;47010;-65
2023/06/16 06:27:41;;;;;;;;;10.00;7.67;;;;;26.02;60.73;100142.09;146619;686;46016;-64
2023/06/16 06:30:41;;;;;;;;;6.67;6.67;;;;;26.13;59.15;100137.38;146623;573;47010;-66
2023/06/16 06:33:36;;;;;;;;;6.00;5.00;;;;;26.15;58.48;100142.69;146620;586;46016;-66
2023/06/16 06:36:47;;;;;;;;;8.67;7.67;;;;;26.26;59.68;100135.34;146621;603;45025;-65
2023/06/16 06:39:42;;;;;;;;;9.00;9.00;;;;;26.38;57.31;100140.38;146620;629;46012;-65
2023/06/16 06:43:01;;;;;;;;;9.33;8.33;;;;;26.52;58.52;100129.47;146622;574;46020;-65
2023/06/16 06:46:15;;;;;;;;;7.33;7.33;;;;;26.73;58.28;100128.09;146621;575;46014;-65
2023/06/16 06:49:41;;;;;;;;;9.00;9.00;;;;;26.88;56.11;100135.66;146624;577;46029;-65
2023/06/16 06:52:40;;;;;;;;;6.00;6.00;;;;;26.84;56.04;100128.66;146617;566;46017;-65
2023/06/16 06:55:38;;;;;;;;;7.00;7.00;;;;;26.74;54.94;100124.50;146625;570;46010;-64
2023/06/16 06:58:31;;;;;;;;;7.33;7.33;;;;;26.55;54.90;100126.72;146622;566;46015;-66
2023/06/16 07:01:34;;;;;;;;;7.33;6.67;;;;;26.35;56.25;100128.94;146617;597;46020;-65
2023/06/16 07:04:27;;;;;;;;;7.00;7.00;;;;;26.20;56.09;100124.84;146619;639;46016;-65
2023/06/16 07:07:20;;;;;;;;;8.00;7.33;;;;;26.11;55.24;100125.06;146619;591;46010;-65
2023/06/16 07:10:15;;;;;;;;;6.33;6.33;;;;;26.07;56.48;100126.91;146621;572;46014;-66
2023/06/16 07:13:07;;;;;;;;;6.00;6.00;;;;;26.09;54.99;100126.88;146623;597;46010;-67
2023/06/16 07:16:01;;;;;;;;;5.33;5.33;;;;;26.12;56.46;100127.69;146618;570;47014;-66
2023/06/16 07:19:01;;;;;;;;;5.00;5.00;;;;;26.19;54.73;100123.97;146622;614;46020;-65
2023/06/16 07:21:53;;;;;;;;;6.33;6.33;;;;;26.21;55.76;100119.50;146619;648;46017;-65
2023/06/16 07:24:50;;;;;;;;;7.00;7.00;;;;;26.29;54.66;100119.31;146622;577;46012;-65
2023/06/16 07:28:04;;;;;;;;;;;;;;;;;;;;;
2023/06/16 07:31:14;;;;;;;;;4.00;4.00;;;;;26.48;56.67;100123.34;146626;574;46010;-66
2023/06/16 07:34:24;;;;;;;;;11.00;8.67;;;;;26.54;58.53;100127.63;146622;627;46012;-66
2023/06/16 07:37:18;;;;;;;;;7.00;7.00;;;;;26.51;57.19;100121.50;146617;571;46021;-67
2023/06/16 07:40:15;;;;;;;;;8.00;8.00;;;;;26.49;57.74;100122.44;146618;563;47021;-65
2023/06/16 07:43:22;;;;;;;;;10.00;8.33;;;;;26.46;57.48;100110.97;146625;613;46010;-66
2023/06/16 07:46:24;;;;;;;;;12.00;9.67;;;;;26.51;58.46;100118.84;146620;598;46012;-65
2023/06/16 07:49:31;;;;;;;;;12.67;10.33;;;;;26.62;57.32;100117.69;146622;637;45020;-65
2023/06/16 07:52:31;;;;;;;;;9.00;9.00;;;;;26.71;57.23;100112.16;146618;590;46922;-65
2023/06/16 07:55:26;;;;;;;;;8.67;8.33;;;;;26.82;57.13;100109.22;146620;641;47010;-66
2023/06/16 07:58:36;;;;;;;;;8.67;8.67;;;;;26.99;54.85;100110.59;146623;599;46014;-66
2023/06/16 08:01:45;;;;;;;;;9.67;9.00;;;;;26.15;56.59;99936.31;146623;602;46010;-65
2023/06/16 08:05:16;;;;;;;;;9.33;9.33;;;;;24.68;57.84;99690.31;146620;577;46015;-67
2023/06/16 08:08:22;;;;;;;;;8.00;8.00;;;;;27.07;56.09;100116.56;146618;599;46012;-65
2023/06/16 08:11:22;;;;;;;;;11.00;10.00;;;;;26.92;55.71;100113.41;146618;583;47012;-65
2023/06/16 08:14:38;;;;;;;;;;;;;;;;;;;;;
2023/06/16 08:18:04;;;;;;;;;;;;;;;;;;;;;
2023/06/16 08:20:46;;;;;;;;;13.00;10.67;;;;;26.79;56.93;100116.38;146705;569;45023;-65
2023/06/16 08:23:42;;;;;;;;;11.33;10.00;;;;;25.69;57.76;99928.53;146618;569;46014;-66
2023/06/16 08:26:40;;;;;;;;;8.00;8.00;;;;;26.75;57.12;100112.94;146626;570;46010;-66
2023/06/16 08:29:50;;;;;;;;;10.67;9.67;;;;;26.76;57.15;100113.81;146622;601;46012;-65
2023/06/16 08:33:06;;;;;;;;;10.00;10.00;;;;;26.77;56.88;100104.94;146624;619;46020;-65
2023/06/16 08:36:21;;;;;;;;;15.00;11.33;;;;;26.76;57.25;100106.72;146616;679;47017;-65
2023/06/16 08:39:36;;;;;;;;;15.25;15.00;;;;;26.80;58.35;100104.84;146623;601;47010;-65
2023/06/16 08:42:39;;;;;;;;;27.00;22.00;;;;;26.90;56.80;100095.72;146615;584;47032;-66
2023/06/16 08:45:41;;;;;;;;;11.00;10.00;;;;;26.93;56.59;100092.97;146623;576;47010;-66
2023/06/16 08:48:41;;;;;;;;;12.00;11.00;;;;;26.89;56.82;100099.31;146618;581;46017;-65
2023/06/16 08:52:12;;;;;;;;;10.33;9.00;;;;;25.79;57.88;99925.66;146623;585;46028;-66
2023/06/16 08:55:17;;;;;;;;;9.67;9.33;;;;;26.98;58.53;100093.75;146618;614;46014;-66
2023/06/16 08:58:37;;;;;;;;;21.25;18.25;;;;;27.09;58.02;100059.72;146621;593;47010;-66
2023/06/16 09:01:45;;;;;;;;;24.50;20.00;;;;;27.59;54.48;100093.88;146617;640;46014;-65
2023/06/16 09:04:42;;;;;;;;;10.00;8.67;;;;;27.81;55.57;100095.00;146622;569;46010;-65
2023/06/16 09:07:59;;;;;;;;;8.00;7.67;;;;;27.97;53.34;100086.56;146617;628;46920;-67
2023/06/16 09:11:19;;;;;;;;;8.33;7.00;;;;;27.98;54.84;100094.53;146624;563;46020;-67
2023/06/16 09:14:21;;;;;;;;;9.67;8.67;;;;;28.00;52.29;100100.66;146619;578;46014;-66
2023/06/16 09:17:40;;;;;;;;;10.00;9.33;;;;;28.00;54.80;100082.00;146620;582;46020;-66
2023/06/16 09:20:36;;;;;;;;;9.67;9.33;;;;;28.04;52.87;100082.81;146621;599;46012;-65
2023/06/16 09:23:35;;;;;;;;;10.33;8.33;;;;;28.02;53.07;100085.50;146625;582;46020;-66
2023/06/16 09:26:32;;;;;;;;;9.00;9.00;;;;;27.96;52.36;100091.03;146620;579;46013;-65
2023/06/16 09:29:36;;;;;;;;;8.00;8.00;;;;;27.93;54.64;100084.91;146622;563;46020;-65
2023/06/16 09:32:40;;;;;;;;;9.67;8.33;;;;;27.85;53.00;100083.38;146619;604;47012;-65
2023/06/16 09:35:35;;;;;;;;;11.67;10.67;;;;;27.76;54.42;100088.06;146622;576;47012;-65
2023/06/16 09:38:44;;;;;;;;;10.67;9.67;;;;;27.72;54.47;100078.41;146614;590;47014;-65
2023/06/16 09:41:41;;;;;;;;;8.33;8.33;;;;;27.64;54.28;100083.97;146625;572;46020;-66
2023/06/16 09:44:36;;;;;;;;;11.00;10.33;;;;;27.77;53.66;100081.81;146620;604;48012;-67
2023/06/16 09:47:33;;;;;;;;;12.67;11.67;;;;;27.86;52.84;100084.22;146619;585;46020;-67
2023/06/16 09:50:30;;;;;;;;;9.00;9.00;;;;;27.85;53.57;100078.03;146617;564;46016;-67
2023/06/16 09:53:34;;;;;;;;;9.00;8.00;;;;;27.80;54.52;100085.28;146624;631;46010;-67
2023/06/16 09:56:28;;;;;;;;;12.33;11.00;;;;;27.80;53.88;100085.28;146619;656;46017;-65
2023/06/16 09:59:28;;;;;;;;;9.67;9.33;;;;;27.85;53.24;100082.47;146624;641;46010;-67
2023/06/16 10:02:36;;;;;;;;;10.00;9.33;;;;;27.95;55.27;100072.44;146619;631;46016;-66
2023/06/16 10:05:41;;;;;;;;;9.67;8.67;;;;;28.07;54.16;100080.91;146624;588;46012;-66
2023/06/16 10:08:44;;;;;;;;;10.67;10.33;;;;;28.26;53.09;100075.00;146619;589;47012;-67
2023/06/16 10:11:51;;;;;;;;;8.67;7.67;;;;;28.46;53.11;100069.91;146621;594;47011;-66
2023/06/16 10:14:47;;;;;;;;;8.00;8.00;;;;;28.66;52.52;100073.72;146621;578;47012;-67
2023/06/16 10:17:49;;;;;;;;;8.00;8.00;;;;;28.88;51.89;100071.19;146624;610;46020;-68
2023/06/16 10:20:43;;;;;;;;;9.00;8.00;;;;;29.03;50.63;100064.47;146620;585;46016;-68
2023/06/16 10:23:36;;;;;;;;;9.00;9.00;;;;;29.13;50.34;100057.87;146623;593;46020;-67
2023/06/16 10:26:33;;;;;;;;;13.00;10.67;;;;;29.17;50.98;100057.72;146619;645;46012;-67
2023/06/16 10:29:41;;;;;;;;;;;;;;;;;;;;;
2023/06/16 10:33:03;;;;;;;;;10.33;9.33;;;;;29.37;52.17;100048.13;146618;569;47012;-67
2023/06/16 10:36:10;;;;;;;;;7.33;7.33;;;;;29.49;48.78;100049.47;146619;575;49010;-67
2023/06/16 10:39:29;;;;;;;;;9.00;9.00;;;;;28.46;50.95;99853.91;146619;569;46016;-66
2023/06/16 10:42:38;;;;;;;;;9.33;7.33;;;;;29.52;48.36;100049.34;146625;594;46010;-67
2023/06/16 10:45:41;;;;;;;;;9.00;8.00;;;;;29.52;48.85;100034.19;146615;631;47016;-67
2023/06/16 10:48:21;;;;;;;;;8.33;8.33;;;;;29.61;46.73;100036.53;146701;564;46012;-67
2023/06/16 10:51:15;;;;;;;;;7.33;6.00;;;;;29.57;47.43;100034.03;146620;610;47022;-67
2023/06/16 10:54:16;;;;;;;;;9.00;7.00;;;;;29.56;48.09;100034.94;146617;585;46021;-67
2023/06/16 10:57:28;;;;;;;;;7.00;7.00;;;;;28.62;49.46;99856.87;146612;637;47012;-67
2023/06/16 11:00:34;;;;;;;;;7.67;7.67;;;;;29.63;47.42;100031.16;146619;581;46020;-69
2023/06/16 11:03:59;;;;;;;;;9.00;9.00;;;;;29.69;49.51;100025.56;146613;577;46916;-66
2023/06/16 11:07:25;;;;;;;;;7.00;7.00;;;;;29.60;50.39;100007.19;146616;575;46021;-66
2023/06/16 11:10:28;;;;;;;;;8.00;7.00;;;;;29.75;49.21;100027.13;146613;575;46910;-67
2023/06/16 11:13:34;;;;;;;;;8.00;6.67;;;;;29.74;49.76;100030.72;146619;580;46010;-68
2023/06/16 11:16:40;;;;;;;;;12.50;12.25;;;;;29.65;50.25;100014.09;146611;636;46016;-65
2023/06/16 11:19:44;;;;;;;;;11.25;9.25;;;;;29.59;49.61;100013.44;146606;616;47020;-65
2023/06/16 11:22:58;;;;;;;;;7.00;7.00;;;;;29.56;47.98;100013.56;146614;594;46916;-67
2023/06/16 11:26:17;;;;;;;;;8.00;8.00;;;;;29.44;51.66;99988.22;146617;566;46031;-66
2023/06/16 11:29:29;;;;;;;;;10.00;9.00;;;;;29.48;51.45;100011.19;146614;625;46016;-65
2023/06/16 11:32:34;;;;;;;;;12.00;11.00;;;;;29.21;50.66;100007.75;146615;571;47010;-67
2023/06/16 11:35:47;;;;;;;;;9.00;8.67;;;;;27.80;51.19;99828.69;146604;572;47012;-65
2023/06/16 11:39:26;;;;;;;;;;;;;;;;;;;;;
2023/06/16 11:42:23;;;;;;;;;6.67;6.67;;;;;28.61;51.62;99998.31;146612;576;46014;-67
2023/06/16 11:45:38;;;;;;;;;11.00;9.67;;;;;28.17;52.88;99918.91;146616;632;46021;-67
2023/06/16 11:48:43;;;;;;;;;11.75;11.75;;;;;28.61;51.89;99999.19;146636;587;46016;-66
2023/06/16 11:52:03;;;;;;;;;10.50;9.50;;;;;28.57;52.02;100002.91;146631;614;45021;-66
2023/06/16 11:55:10;;;;;;;;;;;;;;;;;;;;;
2023/06/16 11:58:08;;;;;;;;;10.67;9.33;;;;;28.53;51.16;99996.78;146644;597;45010;-66
2023/06/16 12:01:06;;;;;;;;;11.67;10.00;;;;;28.51;50.54;100003.97;146637;572;45943;-66
2023/06/16 12:04:18;;;;;;;;;6.00;6.00;;;;;28.44;51.29;99998.88;146636;572;45010;-66
2023/06/16 12:07:29;;;;;;;;;7.67;7.33;;;;;28.27;50.74;99994.97;146633;584;46017;-68
2023/06/16 12:10:38;;;;;;;;;10.33;9.33;;;;;27.76;51.72;99947.75;146642;563;45034;-67
2023/06/16 12:13:39;;;;;;;;;9.00;9.00;;;;;27.83;53.36;99991.09;146643;593;46917;-66
2023/06/16 12:16:47;;;;;;;;;11.00;10.75;;;;;27.73;52.88;99994.94;146641;729;45021;-66
2023/06/16 12:19:50;;;;;;;;;5.33;5.33;;;;;27.61;53.03;99986.37;146634;626;45016;-66
2023/06/16 12:22:44;;;;;;;;;8.33;8.33;;;;;27.57;51.40;99987.41;146642;576;45024;-66
2023/06/16 12:25:52;;;;;;;;;9.00;8.00;;;;;27.44;52.16;99994.00;146642;563;45016;-67
2023/06/16 12:28:50;;;;;;;;;10.00;8.33;;;;;27.32;53.32;100002.34;146645;596;46010;-66
2023/06/16 12:32:10;;;;;;;;;6.67;6.33;;;;;27.17;54.89;99991.25;146639;580;46010;-67
2023/06/16 12:35:17;;;;;;;;;8.00;7.00;;;;;27.14;55.87;99999.31;146642;565;45028;-66
2023/06/16 12:38:09;;;;;;;;;9.00;9.00;;;;;27.14;55.33;99996.66;146643;581;45013;-67
2023/06/16 12:41:20;;;;;;;;;10.75;9.00;;;;;27.16;53.13;99996.59;146641;683;45020;-66
2023/06/16 12:44:26;;;;;;;;;7.33;6.33;;;;;27.16;54.95;99993.94;146635;600;46017;-66
2023/06/16 12:47:45;;;;;;;;;11.67;10.00;;;;;27.26;54.19;99997.19;146625;602;46010;-66
2023/06/16 12:50:43;;;;;;;;;9.75;9.75;;;;;27.30;54.46;99993.53;146603;581;47012;-66
2023/06/16 12:53:51;;;;;;;;;8.67;8.67;;;;;27.30;55.18;100001.53;146619;640;46010;-66
2023/06/16 12:56:47;;;;;;;;;8.67;8.00;;;;;27.28;54.46;99988.25;146611;596;47012;-66
2023/06/16 12:59:42;;;;;;;;;5.33;5.33;;;;;27.37;52.47;99976.47;146616;567;47010;-66
2023/06/16 13:02:56;;;;;;;;;5.00;5.00;;;;;26.28;52.74;99766.78;146612;610;46014;-66
2023/06/16 13:05:53;;;;;;;;;6.50;5.00;;;;;27.56;50.60;99974.12;146620;577;46021;-66
2023/06/16 13:08:53;;;;;;;;;5.67;5.67;;;;;27.58;50.82;99983.81;146612;565;46016;-66
2023/06/16 13:12:06;;;;;;;;;6.00;6.00;;;;;27.52;49.62;99973.34;146617;588;46031;-65
2023/06/16 13:15:12;;;;;;;;;9.00;7.00;;;;;27.45;51.73;99971.78;146612;633;46012;-66
2023/06/16 13:18:08;;;;;;;;;9.33;9.00;;;;;27.46;51.67;99968.22;146616;577;46020;-66
2023/06/16 13:21:17;;;;;;;;;8.25;8.25;;;;;27.50;52.27;99961.84;146610;643;46014;-65
2023/06/16 13:24:12;;;;;;;;;8.00;8.00;;;;;27.58;52.67;99956.31;146618;561;46020;-65
2023/06/16 13:27:11;;;;;;;;;8.00;8.00;;;;;27.73;52.06;99960.31;146611;599;47015;-66
2023/06/16 13:30:14;;;;;;;;;8.00;8.00;;;;;27.84;51.28;99955.50;146617;627;46021;-67
2023/06/16 13:33:33;;;;;;;;;10.33;9.00;;;;;27.92;49.90;99947.28;146613;621;46016;-66
2023/06/16 13:36:34;;;;;;;;;9.25;6.50;;;;;27.84;50.85;99958.19;146614;596;47010;-66
2023/06/16 13:39:40;;;;;;;;;6.00;6.00;;;;;27.86;50.73;99964.34;146612;627;46012;-66
2023/06/16 13:42:44;;;;;;;;;7.00;7.00;;;;;27.93;49.87;99957.88;146616;570;46012;-65
2023/06/16 13:45:41;;;;;;;;;4.33;4.33;;;;;27.92;47.12;99950.81;146614;650;46016;-67
2023/06/16 13:48:45;;;;;;;;;7.00;6.33;;;;;27.85;47.76;99946.59;146644;646;45028;-65
2023/06/16 13:51:49;;;;;;;;;7.00;7.00;;;;;27.76;49.42;99954.87;146636;602;46014;-65
2023/06/16 13:54:48;;;;;;;;;5.67;5.33;;;;;27.71;48.08;99960.34;146644;641;46010;-65
2023/06/16 13:57:43;;;;;;;;;6.00;5.00;;;;;27.56;48.65;99959.00;146642;584;46012;-65
2023/06/16 14:00:39;;;;;;;;;4.67;4.33;;;;;27.43;49.37;99962.97;146640;572;45020;-65
2023/06/16 14:03:37;;;;;;;;;6.67;6.67;;;;;27.31;49.61;99956.22;146641;632;45012;-65
2023/06/16 14:06:32;;;;;;;;;7.00;7.00;;;;;27.23;49.56;99971.56;146640;576;46051;-65
2023/06/16 14:09:39;;;;;;;;;8.00;7.00;;;;;27.12;50.10;99978.94;146640;660;45012;-66
2023/06/16 14:12:37;;;;;;;;;5.33;5.00;;;;;26.91;50.43;99970.63;146644;570;45031;-64
2023/06/16 14:15:50;;;;;;;;;7.67;6.00;;;;;26.71;51.53;99973.84;146639;580;45914;-65
2023/06/16 14:18:52;;;;;;;;;6.33;6.00;;;;;26.57;52.36;99976.00;146642;582;45020;-65
2023/06/16 14:21:44;;;;;;;;;5.67;5.67;;;;;26.46;52.36;99976.25;146639;666;45915;-65
2023/06/16 14:24:48;;;;;;;;;6.00;5.67;;;;;26.39;53.03;99989.75;146645;570;46010;-66
2023/06/16 14:28:21;;;;;;;;;6.33;6.33;;;;;24.81;53.69;99773.09;146637;630;46025;-66
2023/06/16 14:31:17;;;;;;;;;6.00;6.00;;;;;26.06;53.90;99997.62;146644;638;46010;-67
2023/06/16 14:34:29;;;;;;;;;;;;;;;;;;;;;
2023/06/16 14:37:29;;;;;;;;;5.67;5.00;;;;;25.90;54.72;100001.56;146641;653;46012;-65